ベレン国際空港の過去48時間の天気

ベレン国際空港 (Belem Aeroporto )

現在時刻: 8/18 10:45 -04 (8/18 14:45 UTC) 以下の時間は現地時間です。

過去48時間のMETAR気象情報
時間 風向 風速(m/s) 視程 気温(℃) 湿度(%) 気圧(hPa) 天気現象
18 10:00 東南東 3 10km以上 32 59 1012
18 09:00 東北東 4 10km以上 30 66 1012
18 08:00 東北東 6 10km以上 28 79 1012
18 07:00 東北東 5 10km以上 27 79 1011
18 06:00 4 10km以上 25 89 1011
18 05:00 4 10km以上 25 89 1011
18 04:00 東北東 5 10km以上 25 89 1010
18 03:00 東北東 6 10km以上 25 89 1010
18 02:00 東北東 6 10km以上 25 89 1010
18 01:00 東北東 6 10km以上 26 84 1011
18 00:00 東北東 5 10km以上 26 84 1012
17 23:00 6 10km以上 26 84 1012
17 22:00 5 10km以上 27 84 1012
17 21:00 東北東 5 10km以上 27 84 1012 周辺で雷
17 20:00 北東 5 10km以上 28 84 1011 周辺で雷
17 19:00 北東 2 10km以上 28 84 1010 周辺で雷
17 18:00 北北東 3 10km以上 29 79 1010
17 17:00 5 10km以上 29 79 1010
17 16:00 5 10km以上 30 75 1009
17 15:00 6 10km以上 30 75 1009
17 14:00 北東 3 10km以上 32 67 1009
17 13:00 南南東 4 10km以上 33 53 1010
17 12:00 南東 4 10km以上 33 53 1011
17 11:00 4 10km以上 32 63 1011
17 10:00 北東 3 10km以上 31 62 1012
17 09:00 4 10km以上 30 70 1012
17 08:00 東北東 5 10km以上 28 79 1012
17 07:00 東北東 4 10km以上 26 89 1011
17 06:00 東北東 2 9000m 25 94 1011
17 05:00 東北東 2 8000m 24 94 1011
17 04:00 北東 2 9000m 25 94 1010
17 03:00 東北東 3 9000m 25 94 1010
17 02:00 東北東 4 8000m 25 94 1010
17 01:00 5 8000m 25 94 1011
17 00:00 東北東 6 10km以上 26 89 1012
16 23:00 5 10km以上 26 89 1012
16 22:00 6 10km以上 27 84 1013
16 21:00 5 10km以上 27 84 1012
16 20:00 東北東 4 10km以上 28 79 1012
16 19:00 東北東 4 10km以上 28 84 1011
16 18:00 北東 4 10km以上 29 79 1011
16 17:00 4 10km以上 30 70 1010
16 16:00 5 10km以上 30 75 1010
16 15:00 3 10km以上 31 70 1009
16 14:00 東南東 5 10km以上 34 47 1010
16 13:00 東南東 3 10km以上 33 53 1010
16 12:00 南南東 4 10km以上 33 49 1011
16 11:00 北北西 3 10km以上 31 66 1012
SBBE 181400Z 11006KT 9999 FEW030 SCT100 32/23 Q1012
SBBE 181300Z 06007KT 9999 FEW030 SCT100 30/23 Q1012
SBBE 181200Z 07011KT CAVOK 28/24 Q1012
SBBE 181100Z 07009KT CAVOK 27/23 Q1011
SBBE 181000Z 08007KT CAVOK 25/23 Q1011
SBBE 180900Z 08007KT CAVOK 25/23 Q1011
SBBE 180800Z 06009KT CAVOK 25/23 Q1010
SBBE 180700Z 07012KT CAVOK 25/23 Q1010
SBBE 180600Z 06011KT CAVOK 25/23 Q1010
SBBE 180500Z 07012KT CAVOK 26/23 Q1011
SBBE 180400Z 06010KT CAVOK 26/23 Q1012
SBBE 180300Z 08011KT CAVOK 26/23 Q1012
SBBE 180200Z 08009KT CAVOK 27/24 Q1012
SBBE 180100Z 07010KT 9999 VCTS FEW050 FEW051CB 27/24 Q1012
SBBE 180000Z 05009KT 9999 VCTS FEW049 FEW051CB 28/25 Q1011
SBBE 172300Z 04004KT 9999 VCTS FEW049 FEW051CB 28/25 Q1010
SBBE 172200Z 02006KT 9999 FEW049 29/25 Q1010
SBBE 172100Z 36010KT 9999 FEW049 29/25 Q1010
SBBE 172000Z 35010KT 9999 SCT049 30/25 Q1009
SBBE 171900Z 35011KT 9999 FEW025 SCT049 30/25 Q1009
SBBE 171800Z 05006KT 9999 SCT049 32/25 Q1009
SBBE 171700Z 16007KT 9999 SCT048 33/22 Q1010
SBBE 171600Z 14007KT 9999 SCT040 33/22 Q1011
SBBE 171500Z 17007KT 9999 SCT040 32/24 Q1011
SBBE 171400Z 05006KT CAVOK 31/23 Q1012
SBBE 171300Z 08007KT 9999 FEW018 30/24 Q1012
SBBE 171200Z 06009KT 9999 SCT013 BKN015 28/24 Q1012
SBBE 171100Z 07007KT 9999 FEW010 26/24 Q1011
SBBE 171000Z 06003KT 9000 FEW012 25/24 Q1011
SBBE 170900Z 06003KT 8000 NSC 24/23 Q1011
SBBE 170800Z 05004KT 9000 NSC 25/24 Q1010
SBBE 170700Z 07006KT 9000 NSC 25/24 Q1010
SBBE 170600Z 07008KT 8000 NSC 25/24 Q1010
SBBE 170500Z 08009KT 8000 NSC 25/24 Q1011
SBBE 170400Z 07011KT CAVOK 26/24 Q1012
SBBE 170300Z 08009KT CAVOK 26/24 Q1012
SBBE 170200Z 08011KT CAVOK 27/24 Q1013
SBBE 170100Z 08009KT CAVOK 27/24 Q1012
SBBE 170000Z 06008KT CAVOK 28/24 Q1012
SBBE 162300Z 06007KT CAVOK 28/25 Q1011
SBBE 162200Z 04007KT CAVOK 29/25 Q1011
SBBE 162100Z 01008KT 9999 SCT030 30/24 Q1010
SBBE 162000Z 35010KT 9999 SCT048 30/25 Q1010
SBBE 161900Z 36005KT 9999 SCT049 31/25 Q1009
SBBE 161800Z 12009KT 9999 SCT048 34/21 Q1010
SBBE 161700Z 12006KT 9999 SCT046 33/22 Q1010
SBBE 161600Z 15008KT 9999 SCT047 33/21 Q1011
SBBE 161500Z 33005KT 9999 SCT047 31/24 Q1012